createdAt,value
2019-03-22T00:02:24.760Z,16.97
2019-03-22T00:04:51.834Z,16.67
2019-03-22T00:07:18.897Z,16.43
2019-03-22T00:09:45.934Z,17.57
2019-03-22T00:12:13.012Z,18.17
2019-03-22T00:14:40.066Z,16.87
2019-03-22T00:17:07.974Z,16.83
2019-03-22T00:19:35.061Z,17.70
2019-03-22T00:22:04.309Z,17.07
2019-03-22T00:24:31.377Z,17.50
2019-03-22T00:26:58.418Z,17.83
2019-03-22T00:29:25.509Z,16.90
2019-03-22T00:31:52.906Z,17.53
2019-03-22T00:34:19.947Z,17.47
2019-03-22T00:36:47.343Z,17.23
2019-03-22T00:39:15.614Z,14.90
2019-03-22T00:41:42.678Z,16.97
2019-03-22T00:44:09.755Z,18.30
2019-03-22T00:46:36.847Z,17.27
2019-03-22T00:49:03.893Z,17.17
2019-03-22T00:51:30.897Z,16.83
2019-03-22T00:53:59.555Z,16.83
2019-03-22T00:56:26.573Z,16.00
2019-03-22T00:58:53.766Z,16.17
2019-03-22T01:01:20.904Z,17.10
2019-03-22T01:03:48.003Z,16.07
2019-03-22T01:06:15.365Z,16.47
2019-03-22T01:08:42.825Z,15.47
2019-03-22T01:11:10.007Z,15.83
2019-03-22T01:13:37.849Z,16.83
2019-03-22T01:16:04.988Z,15.60
2019-03-22T01:18:32.767Z,16.40
2019-03-22T01:20:59.820Z,15.30
2019-03-22T01:23:32.046Z,15.67
2019-03-22T01:25:59.264Z,15.77
2019-03-22T01:28:28.619Z,14.30
2019-03-22T01:30:55.681Z,15.73
2019-03-22T01:33:22.752Z,15.43
2019-03-22T01:35:50.148Z,16.90
2019-03-22T01:38:17.354Z,17.60
2019-03-22T01:40:47.564Z,16.27
2019-03-22T01:43:14.681Z,15.90
2019-03-22T01:45:41.814Z,16.37
2019-03-22T01:48:11.266Z,14.60
2019-03-22T01:50:38.354Z,16.43
2019-03-22T01:53:05.490Z,17.07
2019-03-22T01:55:35.882Z,15.83
2019-03-22T01:58:03.192Z,14.03
2019-03-22T02:00:30.378Z,16.33
2019-03-22T02:02:57.460Z,16.70
2019-03-22T02:05:25.133Z,16.30
2019-03-22T02:07:52.211Z,17.77
2019-03-22T02:10:19.627Z,18.17
2019-03-22T02:12:47.685Z,17.37
2019-03-22T02:15:15.725Z,17.47
2019-03-22T02:17:43.144Z,17.90
2019-03-22T02:20:10.614Z,18.37
2019-03-22T02:22:37.674Z,16.97
2019-03-22T02:25:07.987Z,16.50
2019-03-22T02:27:35.250Z,15.20
2019-03-22T02:30:02.557Z,16.93
2019-03-22T02:32:29.586Z,19.43
2019-03-22T02:34:56.718Z,16.60
2019-03-22T02:37:24.336Z,17.80
2019-03-22T02:39:51.673Z,17.73
2019-03-22T02:42:18.682Z,16.67
2019-03-22T02:44:45.939Z,16.23
2019-03-22T02:47:13.857Z,18.43
2019-03-22T02:49:41.068Z,18.30
2019-03-22T02:52:08.108Z,18.43
2019-03-22T02:54:35.137Z,18.17
2019-03-22T02:57:02.314Z,14.83
2019-03-22T02:59:29.356Z,16.33
2019-03-22T03:01:56.648Z,15.63
2019-03-22T03:04:23.685Z,16.13
2019-03-22T03:06:51.294Z,16.87
2019-03-22T03:09:18.328Z,17.40
2019-03-22T03:11:46.808Z,17.17
2019-03-22T03:14:14.362Z,16.50
2019-03-22T03:16:41.847Z,16.37
2019-03-22T03:19:08.876Z,15.27
2019-03-22T03:21:35.939Z,15.57
2019-03-22T03:24:06.155Z,16.00
2019-03-22T03:26:33.695Z,16.77
2019-03-22T03:29:00.725Z,17.53
2019-03-22T03:31:28.300Z,17.07
2019-03-22T03:33:55.844Z,16.20
2019-03-22T03:36:22.940Z,17.27
2019-03-22T03:38:49.964Z,17.20
2019-03-22T03:41:17.142Z,16.80
2019-03-22T03:43:44.364Z,16.77
2019-03-22T03:46:11.669Z,17.63
2019-03-22T03:48:39.842Z,19.47
2019-03-22T03:51:06.865Z,19.30
2019-03-22T03:53:33.891Z,20.20
2019-03-22T03:56:03.505Z,20.10
2019-03-22T03:58:30.502Z,17.83
2019-03-22T04:00:57.510Z,16.90
2019-03-22T04:03:24.920Z,17.80
2019-03-22T04:05:52.121Z,17.53
2019-03-22T04:08:19.153Z,17.17
2019-03-22T04:10:46.194Z,19.10
2019-03-22T04:13:15.576Z,19.20
2019-03-22T04:15:43.015Z,16.93
2019-03-22T04:18:10.032Z,19.10
2019-03-22T04:20:37.445Z,18.87
2019-03-22T04:23:04.551Z,18.00
2019-03-22T04:25:31.637Z,18.37
2019-03-22T04:27:58.648Z,18.13
2019-03-22T04:30:29.203Z,18.73
2019-03-22T04:32:56.253Z,18.90
2019-03-22T04:35:23.261Z,21.10
2019-03-22T04:37:52.810Z,19.97
2019-03-22T04:40:27.734Z,18.67
2019-03-22T04:42:54.920Z,17.00
2019-03-22T04:45:22.089Z,18.37
2019-03-22T04:47:53.784Z,17.83
2019-03-22T04:50:21.866Z,18.20
2019-03-22T04:52:49.316Z,17.93
2019-03-22T04:55:16.983Z,19.97
2019-03-22T04:57:44.490Z,21.70
2019-03-22T05:00:12.842Z,22.27
2019-03-22T05:02:41.188Z,20.90
2019-03-22T05:05:09.002Z,19.60
2019-03-22T05:07:36.217Z,19.57
2019-03-22T05:10:05.587Z,19.67
2019-03-22T05:12:33.047Z,19.50
2019-03-22T05:15:00.790Z,19.37
2019-03-22T05:17:29.288Z,20.13
2019-03-22T05:19:57.165Z,18.60
2019-03-22T05:22:25.214Z,19.53
2019-03-22T05:24:53.290Z,19.83
2019-03-22T05:27:20.549Z,17.27
2019-03-22T05:29:47.696Z,18.23
2019-03-22T05:32:16.348Z,18.97
2019-03-22T05:34:43.395Z,21.27
2019-03-22T05:37:11.427Z,19.77
2019-03-22T05:39:38.587Z,19.33
2019-03-22T05:42:05.950Z,20.13
2019-03-22T05:44:33.142Z,21.17
2019-03-22T05:47:00.214Z,20.63
2019-03-22T05:49:27.333Z,19.93
2019-03-22T05:51:54.422Z,20.63
2019-03-22T05:54:21.420Z,19.47
2019-03-22T05:56:54.914Z,20.80
2019-03-22T05:59:21.942Z,19.43
2019-03-22T06:01:49.023Z,19.00
2019-03-22T06:04:16.137Z,17.30
2019-03-22T06:06:43.152Z,18.20
2019-03-22T06:09:10.201Z,18.00
2019-03-22T06:11:37.262Z,19.00
2019-03-22T06:14:04.517Z,20.77
2019-03-22T06:16:31.894Z,20.60
2019-03-22T06:18:58.925Z,22.67
2019-03-22T06:21:26.234Z,23.60
2019-03-22T06:23:53.258Z,24.20
2019-03-22T06:26:20.337Z,24.20
2019-03-22T06:28:47.345Z,23.90
2019-03-22T06:31:14.363Z,21.97
2019-03-22T06:33:42.504Z,20.97
2019-03-22T06:36:09.590Z,21.60
2019-03-22T06:38:36.679Z,23.00
2019-03-22T06:41:04.445Z,22.43
2019-03-22T06:43:31.502Z,21.17
2019-03-22T06:45:58.551Z,22.23
2019-03-22T06:48:25.624Z,22.10
2019-03-22T06:50:52.637Z,20.20
2019-03-22T06:53:19.662Z,17.50
2019-03-22T06:55:46.732Z,19.83
2019-03-22T06:58:13.802Z,19.33
2019-03-22T07:00:40.826Z,21.47
2019-03-22T07:03:07.867Z,20.43
2019-03-22T07:05:34.932Z,20.53
2019-03-22T07:08:02.893Z,21.07
2019-03-22T07:10:29.968Z,19.53
2019-03-22T07:12:56.987Z,19.80
2019-03-22T07:15:24.014Z,19.60
2019-03-22T07:17:51.107Z,18.30
2019-03-22T07:20:18.150Z,17.97
2019-03-22T07:22:45.193Z,19.57
2019-03-22T07:25:12.388Z,19.50
2019-03-22T07:27:39.415Z,20.80
2019-03-22T07:30:17.891Z,21.63
2019-03-22T07:32:35.815Z,21.13
2019-03-22T07:35:03.348Z,22.33
2019-03-22T07:37:31.217Z,22.07
2019-03-22T07:39:58.473Z,20.47
2019-03-22T07:42:25.572Z,22.33
2019-03-22T07:44:52.622Z,21.50
2019-03-22T07:47:19.925Z,20.90
2019-03-22T07:49:48.204Z,21.33
2019-03-22T07:52:16.331Z,22.07
2019-03-22T07:54:43.741Z,22.40
2019-03-22T07:57:12.041Z,22.07
2019-03-22T07:59:40.103Z,19.93
2019-03-22T08:02:07.820Z,20.83
2019-03-22T08:04:45.286Z,20.83
2019-03-22T08:07:20.376Z,20.30
2019-03-22T08:09:51.141Z,19.27
2019-03-22T08:12:19.993Z,18.97
2019-03-22T08:14:47.042Z,20.00
2019-03-22T08:17:14.045Z,19.90
2019-03-22T08:19:41.190Z,20.90
2019-03-22T08:22:08.726Z,21.30
2019-03-22T08:24:35.719Z,21.23
2019-03-22T08:27:06.770Z,20.77
2019-03-22T08:29:33.926Z,20.17
2019-03-22T08:32:01.210Z,20.07
2019-03-22T08:34:28.227Z,20.60
2019-03-22T08:36:55.405Z,20.87
2019-03-22T08:39:22.418Z,20.63
2019-03-22T08:41:49.590Z,20.77
2019-03-22T08:44:17.679Z,19.70
2019-03-22T08:46:45.223Z,21.53
2019-03-22T08:49:12.538Z,21.90
2019-03-22T08:51:39.741Z,22.07
2019-03-22T08:54:06.794Z,20.63
2019-03-22T08:56:36.009Z,23.27
2019-03-22T08:59:03.230Z,21.73
2019-03-22T09:01:30.260Z,21.47
2019-03-22T09:03:57.390Z,21.33
2019-03-22T09:06:24.438Z,20.90
2019-03-22T09:08:51.520Z,20.73
2019-03-22T09:11:18.940Z,22.70
2019-03-22T09:13:46.663Z,22.63
2019-03-22T09:16:13.915Z,20.67
2019-03-22T09:18:40.922Z,22.53
2019-03-22T09:21:08.078Z,23.03
2019-03-22T09:23:35.096Z,22.90
2019-03-22T09:26:02.245Z,22.97
2019-03-22T09:28:29.265Z,22.40
2019-03-22T09:31:09.416Z,23.53
2019-03-22T09:33:25.507Z,23.83
2019-03-22T09:35:53.611Z,22.27
2019-03-22T09:38:20.649Z,22.07
2019-03-22T09:40:51.130Z,23.83
2019-03-22T09:43:18.190Z,23.13
2019-03-22T09:45:45.368Z,23.67
2019-03-22T09:48:13.450Z,24.70
2019-03-22T09:50:41.016Z,23.97
2019-03-22T09:53:08.760Z,24.53
2019-03-22T09:55:35.976Z,22.97
2019-03-22T09:58:03.026Z,23.23
2019-03-22T10:00:31.589Z,23.37
2019-03-22T10:02:58.999Z,24.33
2019-03-22T10:05:26.019Z,23.07
2019-03-22T10:07:53.918Z,23.37
2019-03-22T10:10:21.379Z,23.23
2019-03-22T10:12:48.624Z,23.50
2019-03-22T10:15:15.805Z,23.57
2019-03-22T10:17:43.048Z,23.17
2019-03-22T10:20:11.173Z,23.37
2019-03-22T10:22:38.940Z,24.40
2019-03-22T10:25:06.735Z,21.50
2019-03-22T10:27:33.911Z,23.33
2019-03-22T10:30:00.923Z,21.97
2019-03-22T10:32:29.045Z,21.93
2019-03-22T10:34:56.123Z,21.10
2019-03-22T10:37:23.160Z,22.50
2019-03-22T10:39:50.306Z,23.07
2019-03-22T10:42:17.609Z,23.77
2019-03-22T10:44:44.758Z,22.67
2019-03-22T10:47:12.648Z,22.50
2019-03-22T10:49:41.933Z,22.20
2019-03-22T10:52:08.802Z,21.90
2019-03-22T10:54:36.217Z,21.70
2019-03-22T10:57:03.377Z,20.03
2019-03-22T10:59:30.440Z,21.47
2019-03-22T11:02:03.079Z,21.85
2019-03-22T11:04:26.435Z,19.92
2019-03-22T11:06:53.950Z,19.67
2019-03-22T11:09:21.989Z,19.60
2019-03-22T11:11:49.173Z,19.00
2019-03-22T11:14:16.192Z,20.17
2019-03-22T11:16:43.259Z,20.68
2019-03-22T11:19:10.398Z,21.00
2019-03-22T11:21:37.743Z,20.15
2019-03-22T11:24:04.904Z,20.17
2019-03-22T11:26:31.972Z,22.25
2019-03-22T11:28:59.144Z,21.05
2019-03-22T11:31:28.717Z,20.23
2019-03-22T11:33:55.683Z,22.70
2019-03-22T11:36:23.316Z,20.88
2019-03-22T11:38:51.399Z,22.10
2019-03-22T11:41:18.785Z,19.90
2019-03-22T11:43:45.915Z,19.52
2019-03-22T11:46:13.163Z,19.73
2019-03-22T11:48:40.209Z,19.70
2019-03-22T11:51:09.120Z,19.30
2019-03-22T11:53:36.122Z,16.57
2019-03-22T11:56:04.015Z,11.20
2019-03-22T11:58:31.158Z,9.85
2019-03-22T12:00:59.875Z,10.35
2019-03-22T12:03:28.956Z,9.90
2019-03-22T12:05:56.183Z,9.00
2019-03-22T12:08:25.459Z,10.53
2019-03-22T12:10:52.438Z,10.63
2019-03-22T12:13:19.600Z,11.57
2019-03-22T12:15:47.809Z,12.03
2019-03-22T12:18:14.967Z,11.37
2019-03-22T12:20:42.171Z,11.47
2019-03-22T12:23:09.404Z,10.78
2019-03-22T12:25:36.679Z,11.07
2019-03-22T12:28:04.041Z,11.73
2019-03-22T12:30:31.159Z,10.10
2019-03-22T12:32:58.952Z,10.07
2019-03-22T12:35:27.393Z,9.57
2019-03-22T12:37:57.705Z,9.33
2019-03-22T12:40:25.150Z,8.43
2019-03-22T12:42:56.612Z,8.80
2019-03-22T12:45:24.921Z,9.47
2019-03-22T12:47:55.126Z,8.67
2019-03-22T12:50:22.774Z,6.80
2019-03-22T12:52:50.127Z,9.27
2019-03-22T12:55:17.553Z,8.23
2019-03-22T12:57:44.991Z,8.90
2019-03-22T13:00:14.931Z,9.97
2019-03-22T13:02:42.622Z,10.23
2019-03-22T13:05:10.110Z,12.37
2019-03-22T13:07:55.447Z,11.70
2019-03-22T13:10:40.802Z,12.00
2019-03-22T13:13:20.079Z,12.20
2019-03-22T13:15:47.912Z,13.77
2019-03-22T13:18:15.306Z,13.53
2019-03-22T13:20:43.586Z,15.53
2019-03-22T13:23:11.100Z,14.87
2019-03-22T13:25:38.458Z,17.73
2019-03-22T13:28:06.199Z,20.60
2019-03-22T13:30:36.842Z,16.00
2019-03-22T13:33:04.426Z,16.87
2019-03-22T13:35:31.518Z,17.77
2019-03-22T13:37:58.820Z,18.57
2019-03-22T13:40:26.031Z,17.80
2019-03-22T13:42:53.233Z,18.97
2019-03-22T13:45:22.288Z,15.87
2019-03-22T13:47:50.062Z,17.27
2019-03-22T13:50:17.689Z,8.00
2019-03-22T13:52:44.861Z,4.87
2019-03-22T13:55:12.441Z,3.67
2019-03-22T13:57:39.833Z,4.37
2019-03-22T14:00:08.442Z,3.60
2019-03-22T14:02:35.687Z,3.80
2019-03-22T14:05:03.459Z,4.90
2019-03-22T14:07:31.788Z,11.93
2019-03-22T14:09:59.088Z,17.03
2019-03-22T14:12:26.170Z,15.77
2019-03-22T14:14:53.850Z,14.27
2019-03-22T14:17:21.117Z,5.97
2019-03-22T14:19:48.256Z,3.37
2019-03-22T14:22:15.548Z,3.53
2019-03-22T14:24:43.759Z,3.83
2019-03-22T14:27:10.945Z,3.67
2019-03-22T14:29:41.511Z,4.70
2019-03-22T14:32:10.596Z,16.70
2019-03-22T14:34:37.957Z,18.93
2019-03-22T14:37:05.280Z,18.50
2019-03-22T14:39:32.534Z,12.30
2019-03-22T14:41:59.810Z,4.37
2019-03-22T14:44:28.285Z,7.43
2019-03-22T14:46:56.578Z,4.67
2019-03-22T14:49:23.609Z,6.17
2019-03-22T14:51:50.958Z,5.90
2019-03-22T14:54:18.653Z,17.10
2019-03-22T14:56:45.986Z,16.20
2019-03-22T14:59:13.201Z,15.73
2019-03-22T15:01:40.482Z,14.33
2019-03-22T15:04:10.260Z,15.20
2019-03-22T15:06:37.374Z,15.67
2019-03-22T15:09:06.072Z,15.60
2019-03-22T15:11:33.502Z,10.80
2019-03-22T15:14:08.712Z,10.90
2019-03-22T15:17:02.814Z,13.93
2019-03-22T15:19:55.987Z,12.13
2019-03-22T15:22:41.364Z,13.00
2019-03-22T15:25:37.817Z,14.93
2019-03-22T15:28:29.296Z,13.80
2019-03-22T15:31:14.699Z,14.03
2019-03-22T15:34:13.628Z,12.37
2019-03-22T15:37:02.959Z,13.80
2019-03-22T15:39:48.687Z,15.60
2019-03-22T15:42:15.985Z,16.03
2019-03-22T15:44:43.474Z,14.53
2019-03-22T15:47:11.383Z,14.07
2019-03-22T15:49:39.263Z,12.20
2019-03-22T15:52:06.919Z,4.20
2019-03-22T15:54:34.215Z,4.70
2019-03-22T15:57:01.478Z,4.20
2019-03-22T15:59:29.011Z,4.10
2019-03-22T16:01:58.432Z,8.63
2019-03-22T16:04:25.956Z,8.97
2019-03-22T16:06:53.067Z,11.43
2019-03-22T16:09:20.526Z,13.77
2019-03-22T16:11:47.609Z,14.67
2019-03-22T16:14:14.847Z,14.20
2019-03-22T16:16:42.570Z,13.33
2019-03-22T16:19:09.950Z,13.27
2019-03-22T16:21:37.141Z,12.07
2019-03-22T16:24:04.355Z,12.30
2019-03-22T16:26:32.302Z,12.13
2019-03-22T16:28:59.407Z,12.93
2019-03-22T16:31:26.838Z,12.00
2019-03-22T16:33:54.716Z,11.70
2019-03-22T16:36:22.192Z,11.70
2019-03-22T16:38:49.250Z,12.33
2019-03-22T16:41:16.438Z,10.67
2019-03-22T16:43:43.604Z,10.23
2019-03-22T16:46:10.675Z,10.77
2019-03-22T16:48:37.772Z,11.27
2019-03-22T16:51:04.862Z,10.77
2019-03-22T16:53:31.906Z,9.93
2019-03-22T16:55:59.097Z,10.33
2019-03-22T16:58:26.308Z,10.93
2019-03-22T17:00:53.490Z,10.50
2019-03-22T17:03:20.608Z,9.17
2019-03-22T17:05:47.880Z,10.33
2019-03-22T17:08:15.032Z,9.90
2019-03-22T17:10:42.167Z,9.87
2019-03-22T17:13:09.348Z,10.00
2019-03-22T17:15:36.390Z,10.00
2019-03-22T17:18:04.461Z,10.57
2019-03-22T17:20:31.640Z,11.03
2019-03-22T17:22:58.651Z,10.27
2019-03-22T17:25:25.842Z,11.20
2019-03-22T17:27:52.916Z,11.53
2019-03-22T17:30:20.495Z,12.67
2019-03-22T17:32:47.802Z,11.67
2019-03-22T17:35:14.871Z,12.27
2019-03-22T17:37:43.279Z,12.70
2019-03-22T17:40:10.475Z,12.77
2019-03-22T17:42:37.585Z,12.67
2019-03-22T17:45:04.969Z,12.30
2019-03-22T17:47:34.081Z,12.47
2019-03-22T17:50:01.115Z,12.83
2019-03-22T17:52:28.367Z,12.77
2019-03-22T17:54:55.484Z,12.47
2019-03-22T17:57:22.640Z,12.40
2019-03-22T17:59:49.636Z,11.97
2019-03-22T18:02:16.788Z,12.23
2019-03-22T18:04:44.099Z,12.70
2019-03-22T18:07:11.107Z,12.30
2019-03-22T18:09:38.252Z,12.17
2019-03-22T18:12:05.410Z,12.67
2019-03-22T18:14:32.664Z,13.37
2019-03-22T18:16:59.979Z,12.83
2019-03-22T18:19:27.001Z,12.80
2019-03-22T18:21:54.621Z,13.23
2019-03-22T18:24:24.791Z,13.93
2019-03-22T18:27:02.877Z,14.03
2019-03-22T18:29:29.987Z,13.30
2019-03-22T18:31:57.321Z,13.97
2019-03-22T18:34:33.757Z,13.80
2019-03-22T18:36:53.318Z,14.40
2019-03-22T18:39:20.530Z,14.50
2019-03-22T18:41:47.723Z,13.00
2019-03-22T18:44:15.756Z,13.30
2019-03-22T18:46:44.860Z,13.57
2019-03-22T18:49:12.219Z,13.70
2019-03-22T18:51:39.253Z,14.67
2019-03-22T18:54:07.325Z,14.73
2019-03-22T18:56:34.379Z,14.80
2019-03-22T18:59:03.591Z,14.80
2019-03-22T19:01:30.642Z,13.83
2019-03-22T19:03:57.731Z,15.83
2019-03-22T19:06:24.995Z,13.60
2019-03-22T19:08:54.151Z,14.97
2019-03-22T19:11:21.137Z,13.63
2019-03-22T19:13:48.526Z,15.27
2019-03-22T19:16:15.875Z,14.40
2019-03-22T19:18:42.936Z,14.60
2019-03-22T19:21:11.395Z,13.83
2019-03-22T19:23:39.718Z,15.63
2019-03-22T19:26:07.522Z,14.77
2019-03-22T19:28:36.011Z,15.33
2019-03-22T19:31:03.198Z,14.60
2019-03-22T19:33:30.441Z,14.63
2019-03-22T19:35:57.657Z,15.07
2019-03-22T19:38:24.852Z,13.83
2019-03-22T19:40:53.039Z,14.97
2019-03-22T19:43:20.129Z,15.20
2019-03-22T19:45:47.524Z,14.67
2019-03-22T19:48:15.442Z,15.37
2019-03-22T19:50:42.925Z,15.60
2019-03-22T19:53:10.329Z,15.00
2019-03-22T19:55:37.453Z,14.90
2019-03-22T19:58:04.939Z,14.90
2019-03-22T20:00:32.264Z,15.17
2019-03-22T20:02:59.426Z,15.43
2019-03-22T20:05:29.141Z,14.87
2019-03-22T20:07:56.430Z,14.90
2019-03-22T20:10:23.873Z,14.43
2019-03-22T20:12:51.639Z,14.53
2019-03-22T20:15:19.135Z,14.73
2019-03-22T20:17:46.609Z,13.57
2019-03-22T20:20:14.209Z,15.13
2019-03-22T20:22:41.318Z,15.70
2019-03-22T20:25:08.866Z,15.30
2019-03-22T20:27:36.852Z,13.97
2019-03-22T20:30:06.007Z,15.37
2019-03-22T20:32:33.171Z,14.70
2019-03-22T20:35:00.201Z,15.97
2019-03-22T20:37:28.419Z,15.73
2019-03-22T20:39:55.960Z,15.40
2019-03-22T20:42:23.005Z,15.13
2019-03-22T20:44:50.642Z,14.80
2019-03-22T20:47:17.973Z,14.93
2019-03-22T20:49:45.151Z,14.53
2019-03-22T20:52:13.807Z,15.20
2019-03-22T20:54:40.891Z,14.73
2019-03-22T20:57:08.328Z,16.27
2019-03-22T20:59:35.704Z,16.10
2019-03-22T21:02:04.090Z,16.47
2019-03-22T21:04:31.301Z,16.23
2019-03-22T21:06:58.688Z,17.00
2019-03-22T21:09:25.994Z,16.17
2019-03-22T21:11:53.292Z,17.73
2019-03-22T21:14:26.512Z,17.03
2019-03-22T21:16:53.797Z,16.47
2019-03-22T21:19:20.897Z,17.43
2019-03-22T21:21:48.153Z,18.03
2019-03-22T21:24:15.433Z,18.53
2019-03-22T21:26:42.773Z,17.03
2019-03-22T21:29:10.040Z,17.13
2019-03-22T21:31:37.199Z,17.40
2019-03-22T21:34:04.306Z,17.47
2019-03-22T21:36:32.550Z,17.33
2019-03-22T21:38:59.592Z,17.47
2019-03-22T21:41:26.716Z,18.07
2019-03-22T21:43:53.791Z,17.87
2019-03-22T21:46:20.929Z,17.40
2019-03-22T21:48:50.331Z,18.73
2019-03-22T21:51:17.522Z,18.60
2019-03-22T21:53:48.856Z,19.60
2019-03-22T21:56:16.234Z,18.37
2019-03-22T21:58:43.581Z,19.00
2019-03-22T22:01:14.882Z,18.97
2019-03-22T22:03:41.953Z,19.40
2019-03-22T22:06:09.261Z,18.57
2019-03-22T22:08:36.299Z,20.47
2019-03-22T22:11:04.411Z,19.13
2019-03-22T22:13:32.124Z,19.27
2019-03-22T22:15:59.179Z,19.40
2019-03-22T22:18:26.336Z,19.67
2019-03-22T22:20:53.419Z,21.43
2019-03-22T22:23:20.582Z,20.40
2019-03-22T22:25:47.898Z,18.93
2019-03-22T22:28:16.586Z,18.97
2019-03-22T22:30:43.587Z,19.33
2019-03-22T22:33:10.588Z,19.67
2019-03-22T22:35:37.650Z,19.87
2019-03-22T22:38:04.852Z,19.40
2019-03-22T22:40:32.481Z,19.90
2019-03-22T22:43:00.313Z,19.53
2019-03-22T22:45:27.388Z,20.20
2019-03-22T22:47:57.658Z,18.60
2019-03-22T22:50:25.227Z,18.80
2019-03-22T22:52:52.411Z,18.53
2019-03-22T22:55:19.516Z,17.80
2019-03-22T22:57:46.615Z,19.17
2019-03-22T23:00:14.074Z,17.57
2019-03-22T23:02:41.305Z,17.50
2019-03-22T23:05:08.867Z,16.23
2019-03-22T23:07:36.097Z,14.63
2019-03-22T23:10:04.207Z,16.40
2019-03-22T23:12:31.307Z,15.50
2019-03-22T23:14:59.914Z,15.40
2019-03-22T23:17:27.119Z,15.70
2019-03-22T23:19:54.293Z,15.03
2019-03-22T23:22:21.315Z,14.03
2019-03-22T23:24:48.416Z,13.50
2019-03-22T23:27:15.455Z,16.43
2019-03-22T23:29:42.522Z,12.07
2019-03-22T23:32:09.588Z,13.57
2019-03-22T23:34:36.895Z,10.03
2019-03-22T23:37:04.212Z,10.17
2019-03-22T23:39:31.250Z,10.00
2019-03-22T23:41:58.709Z,10.07
2019-03-22T23:44:25.770Z,8.80
2019-03-22T23:46:52.817Z,8.93
2019-03-22T23:49:19.874Z,9.00
2019-03-22T23:51:46.911Z,7.73
2019-03-22T23:54:13.914Z,7.53
2019-03-22T23:56:41.017Z,8.53
2019-03-22T23:59:08.071Z,8.83
